Time;durP1;ratioP1;P1;durP2;ratioP2;P2;SDS_P1;SDS_P2;PMS_P1;PMS_P2;Temp;Humidity;BMP_temperature;BMP_pressure;BME280_temperature;BME280_humidity;BME280_pressure;Samples;Min_cycle;Max_cycle;Signal;HPM_P1;HPM_P2
2020/12/05 00:00:33;;;;;;;33.93;17.63;;;3.10;99.90;;;;;;5090012;28;21002;-55
2020/12/05 00:02:59;;;;;;;35.03;18.07;;;3.10;99.90;;;;;;5090359;28;20454;-54
2020/12/05 00:05:26;;;;;;;35.90;17.53;;;3.10;99.90;;;;;;5090237;28;21099;-54
2020/12/05 00:07:52;;;;;;;33.53;17.83;;;3.00;99.90;;;;;;5094522;28;20445;-54
2020/12/05 00:10:20;;;;;;;35.87;18.50;;;3.00;99.90;;;;;;5094087;28;20465;-54
2020/12/05 00:12:46;;;;;;;31.77;17.27;;;3.00;99.90;;;;;;5094503;28;20442;-53
2020/12/05 00:15:13;;;;;;;34.50;17.37;;;3.10;99.90;;;;;;5094574;28;20437;-54
2020/12/05 00:17:40;;;;;;;34.30;17.60;;;3.20;99.90;;;;;;5093997;28;20505;-53
2020/12/05 00:20:06;;;;;;;34.13;17.77;;;3.20;99.90;;;;;;5094027;28;20501;-54
2020/12/05 00:22:33;;;;;;;34.07;18.37;;;3.10;99.90;;;;;;5094710;28;20438;-54
2020/12/05 00:24:59;;;;;;;40.90;18.93;;;3.10;99.90;;;;;;5094355;28;20953;-54
2020/12/05 00:27:27;;;;;;;30.07;16.47;;;3.00;99.90;;;;;;5094445;28;20444;-54
2020/12/05 00:29:54;;;;;;;35.77;18.50;;;3.10;99.90;;;;;;5094012;28;20473;-55
2020/12/05 00:32:21;;;;;;;41.67;18.20;;;3.10;99.90;;;;;;5093021;28;20454;-55
2020/12/05 00:34:48;;;;;;;41.57;19.07;;;3.00;99.90;;;;;;5094099;28;20445;-54
2020/12/05 00:37:15;;;;;;;35.77;18.30;;;3.10;99.90;;;;;;5093556;28;21017;-55
2020/12/05 00:39:41;;;;;;;36.10;18.23;;;3.00;99.90;;;;;;5093864;28;20464;-54
2020/12/05 00:42:08;;;;;;;32.03;17.23;;;3.10;99.90;;;;;;5094088;28;20449;-54
2020/12/05 00:44:35;;;;;;;33.87;17.80;;;3.20;99.90;;;;;;5093957;28;20416;-55
2020/12/05 00:47:02;;;;;;;33.80;18.20;;;3.20;99.90;;;;;;5093369;28;20441;-54
2020/12/05 00:49:29;;;;;;;36.23;18.53;;;3.30;99.90;;;;;;5093353;28;20821;-55
2020/12/05 00:51:55;;;;;;;32.37;17.87;;;3.20;99.90;;;;;;5093601;28;20434;-54
2020/12/05 00:54:22;;;;;;;37.63;18.60;;;3.00;99.90;;;;;;5093608;28;20438;-54
2020/12/05 00:56:49;;;;;;;33.60;19.27;;;2.90;99.90;;;;;;5093702;28;20492;-54
2020/12/05 00:59:16;;;;;;;37.23;19.00;;;2.90;99.90;;;;;;5093308;28;20560;-54
2020/12/05 01:01:43;;;;;;;36.50;17.87;;;3.00;99.90;;;;;;5093443;28;20441;-54
2020/12/05 01:04:10;;;;;;;35.90;18.00;;;3.00;99.90;;;;;;5073200;28;20443;-55
2020/12/05 01:06:36;;;;;;;36.20;18.97;;;3.10;99.90;;;;;;5073347;28;20453;-55
2020/12/05 01:09:04;;;;;;;44.83;20.60;;;3.20;99.90;;;;;;5072991;28;20553;-55
2020/12/05 01:11:31;;;;;;;38.40;19.13;;;3.20;99.90;;;;;;5073041;28;20500;-54
2020/12/05 01:13:57;;;;;;;36.87;19.70;;;3.40;99.90;;;;;;5073176;28;20443;-55
2020/12/05 01:16:24;;;;;;;36.40;19.03;;;3.40;99.90;;;;;;5077970;28;21002;-55
2020/12/05 01:18:51;;;;;;;33.50;17.70;;;3.30;99.90;;;;;;5092189;28;20461;-55
2020/12/05 01:21:18;;;;;;;37.87;18.33;;;3.30;99.90;;;;;;5093113;28;20445;-55
2020/12/05 01:23:44;;;;;;;35.33;17.80;;;3.20;99.90;;;;;;5093257;28;20453;-55
2020/12/05 01:26:11;;;;;;;34.27;17.17;;;3.10;99.90;;;;;;5093273;28;20528;-55
2020/12/05 01:28:38;;;;;;;34.87;16.37;;;3.00;99.90;;;;;;5092855;28;20485;-54
2020/12/05 01:31:05;;;;;;;34.03;16.33;;;3.10;99.90;;;;;;5092661;28;20457;-54
2020/12/05 01:33:32;;;;;;;31.57;16.27;;;3.20;99.90;;;;;;5092761;28;20445;-54
2020/12/05 01:36:00;;;;;;;31.83;16.10;;;3.30;99.90;;;;;;5093045;28;20449;-55
2020/12/05 01:38:27;;;;;;;27.10;14.80;;;3.20;99.90;;;;;;5092364;28;20500;-54
2020/12/05 01:40:57;;;;;;;28.37;15.83;;;3.40;99.90;;;;;;5092706;28;20831;-54
2020/12/05 01:43:24;;;;;;;31.80;16.13;;;3.30;99.90;;;;;;5092655;28;20533;-55
2020/12/05 01:45:51;;;;;;;29.40;15.13;;;3.20;99.90;;;;;;5092592;28;20454;-55
2020/12/05 01:48:18;;;;;;;27.80;16.13;;;3.10;99.90;;;;;;5092677;28;20442;-54
2020/12/05 01:50:45;;;;;;;30.93;16.30;;;3.20;99.90;;;;;;5092440;28;20465;-54
2020/12/05 01:53:14;;;;;;;33.23;15.57;;;3.20;99.90;;;;;;5092500;28;20502;-54
2020/12/05 01:55:43;;;;;;;43.40;17.73;;;3.10;99.90;;;;;;5092533;28;20445;-55
2020/12/05 01:58:09;;;;;;;32.20;15.70;;;3.20;99.90;;;;;;5092247;28;20551;-54
2020/12/05 02:00:36;;;;;;;32.40;16.40;;;3.20;99.90;;;;;;5091845;28;20478;-54
2020/12/05 02:03:03;;;;;;;33.87;18.07;;;3.40;99.90;;;;;;5092377;28;20902;-55
2020/12/05 02:05:39;;;;;;;30.53;16.20;;;3.20;99.90;;;;;;5092400;28;20465;-54
2020/12/05 02:08:11;;;;;;;31.53;16.03;;;3.10;99.90;;;;;;5091647;28;20441;-54
2020/12/05 02:10:42;;;;;;;31.43;15.20;;;3.20;99.90;;;;;;5091849;28;20465;-54
2020/12/05 02:13:13;;;;;;;34.60;16.83;;;3.30;99.90;;;;;;5092237;28;20481;-54
2020/12/05 02:15:40;;;;;;;28.47;15.40;;;3.30;99.90;;;;;;5092066;28;20453;-54
2020/12/05 02:18:08;;;;;;;33.77;16.57;;;3.30;99.90;;;;;;5092101;28;20486;-54
2020/12/05 02:20:36;;;;;;;31.07;15.07;;;3.30;99.90;;;;;;5091763;28;20986;-54
2020/12/05 02:23:12;;;;;;;29.57;14.77;;;3.50;99.90;;;;;;5091808;28;20487;-55
2020/12/05 02:25:41;;;;;;;26.67;13.63;;;3.30;99.90;;;;;;5091876;28;20477;-55
2020/12/05 02:28:08;;;;;;;27.97;14.07;;;3.40;99.90;;;;;;5092065;28;20438;-55
2020/12/05 02:30:35;;;;;;;26.93;14.27;;;3.30;99.90;;;;;;5090317;28;20469;-55
2020/12/05 02:33:03;;;;;;;27.53;14.30;;;3.40;99.90;;;;;;5091601;28;20454;-55
2020/12/05 02:35:30;;;;;;;27.17;13.53;;;3.40;99.90;;;;;;5091661;28;20449;-55
2020/12/05 02:38:03;;;;;;;27.43;14.13;;;3.40;99.90;;;;;;5091229;28;21029;-55
2020/12/05 02:40:31;;;;;;;26.73;14.30;;;3.30;99.90;;;;;;5091584;28;20519;-55
2020/12/05 02:42:57;;;;;;;24.60;13.50;;;3.20;99.90;;;;;;5091648;28;20453;-55
2020/12/05 02:45:24;;;;;;;28.07;13.87;;;3.30;99.90;;;;;;5091304;28;20543;-55
2020/12/05 02:47:51;;;;;;;24.30;12.40;;;3.50;99.90;;;;;;5091370;28;20536;-53
2020/12/05 02:50:17;;;;;;;24.33;12.20;;;3.30;99.90;;;;;;5091116;28;20462;-54
2020/12/05 02:52:44;;;;;;;21.47;11.03;;;3.30;99.90;;;;;;5091528;28;20503;-54
2020/12/05 02:55:10;;;;;;;21.73;11.40;;;3.30;99.90;;;;;;5091372;28;20945;-53
2020/12/05 02:57:38;;;;;;;21.67;11.17;;;3.30;99.90;;;;;;5091146;28;20998;-54
2020/12/05 03:00:05;;;;;;;20.57;11.60;;;3.30;99.90;;;;;;5090516;28;20469;-54
2020/12/05 03:02:32;;;;;;;20.77;10.87;;;3.20;99.90;;;;;;5091409;28;20458;-53
2020/12/05 03:04:58;;;;;;;20.17;10.67;;;3.10;99.90;;;;;;5091321;28;20446;-54
2020/12/05 03:07:25;;;;;;;17.87;9.33;;;3.10;99.90;;;;;;5091266;28;20438;-54
2020/12/05 03:09:51;;;;;;;18.63;9.63;;;3.10;99.90;;;;;;5090840;28;20466;-54
2020/12/05 03:12:18;;;;;;;18.80;9.73;;;3.10;99.90;;;;;;5091017;28;20939;-54
2020/12/05 03:14:46;;;;;;;17.50;9.70;;;3.20;99.90;;;;;;5090786;28;20441;-54
2020/12/05 03:17:12;;;;;;;17.27;10.13;;;3.40;99.90;;;;;;5090257;28;20477;-54
2020/12/05 03:19:39;;;;;;;18.97;10.63;;;3.30;99.90;;;;;;5090648;28;20462;-54
2020/12/05 03:22:06;;;;;;;18.47;10.57;;;3.20;99.90;;;;;;5090704;28;20927;-53
2020/12/05 03:24:32;;;;;;;19.90;10.80;;;3.10;99.90;;;;;;5090996;28;20441;-54
2020/12/05 03:26:59;;;;;;;18.67;11.30;;;3.20;99.90;;;;;;5090937;28;20445;-54
2020/12/05 03:29:25;;;;;;;19.87;10.63;;;3.20;99.90;;;;;;5090555;28;20466;-54
2020/12/05 03:31:55;;;;;;;18.17;10.37;;;3.30;99.90;;;;;;5090579;28;20450;-54
2020/12/05 03:34:22;;;;;;;17.23;10.10;;;3.40;99.90;;;;;;5090736;28;20939;-53
2020/12/05 03:36:49;;;;;;;17.73;10.13;;;3.20;99.90;;;;;;5090635;28;20485;-53
2020/12/05 03:39:16;;;;;;;19.17;10.70;;;3.10;99.90;;;;;;5090444;28;20473;-54
2020/12/05 03:41:42;;;;;;;19.63;10.17;;;3.10;99.90;;;;;;5090275;28;20507;-54
2020/12/05 03:44:09;;;;;;;17.57;9.93;;;3.10;99.90;;;;;;5089008;28;20446;-54
2020/12/05 03:46:36;;;;;;;17.60;10.07;;;3.10;99.90;;;;;;5090354;28;20465;-54
2020/12/05 03:49:04;;;;;;;15.77;9.67;;;3.20;99.90;;;;;;5089403;28;20994;-54
2020/12/05 03:51:31;;;;;;;15.23;9.47;;;3.20;99.90;;;;;;5090769;28;20452;-54
2020/12/05 03:53:57;;;;;;;15.73;9.73;;;3.20;99.90;;;;;;5091367;28;20453;-54
2020/12/05 03:56:24;;;;;;;14.87;8.90;;;3.20;99.90;;;;;;5090880;28;20862;-54
2020/12/05 03:58:52;;;;;;;16.13;9.67;;;3.20;99.90;;;;;;5090886;28;20480;-54
2020/12/05 04:01:19;;;;;;;16.00;9.43;;;3.20;99.90;;;;;;5090735;28;20503;-54
2020/12/05 04:03:46;;;;;;;12.50;7.47;;;3.30;99.90;;;;;;5090499;28;20450;-54
2020/12/05 04:06:13;;;;;;;15.40;8.20;;;3.20;99.90;;;;;;5090447;28;21013;-54
2020/12/05 04:08:40;;;;;;;13.37;8.10;;;3.30;99.90;;;;;;5090516;28;20442;-54
2020/12/05 04:11:07;;;;;;;11.77;7.63;;;3.40;99.90;;;;;;5090595;28;20503;-54
2020/12/05 04:13:33;;;;;;;14.77;8.70;;;3.40;99.90;;;;;;5090854;28;20442;-54
2020/12/05 04:16:00;;;;;;;15.07;8.73;;;3.30;99.90;;;;;;5090383;28;20455;-54
2020/12/05 04:18:26;;;;;;;20.13;11.00;;;3.30;99.90;;;;;;5090532;28;20485;-54
2020/12/05 04:20:53;;;;;;;19.33;10.37;;;3.20;99.90;;;;;;5090211;28;20461;-54
2020/12/05 04:23:20;;;;;;;17.40;10.30;;;3.00;99.90;;;;;;5090621;28;20503;-54
2020/12/05 04:25:47;;;;;;;16.90;9.40;;;2.90;99.90;;;;;;5090490;28;20437;-54
2020/12/05 04:28:14;;;;;;;18.07;9.83;;;3.00;99.90;;;;;;5090329;28;20442;-54
2020/12/05 04:30:40;;;;;;;15.53;9.00;;;3.00;99.90;;;;;;5090315;28;20551;-54
2020/12/05 04:33:07;;;;;;;17.37;9.90;;;3.00;99.90;;;;;;5090306;28;20450;-54
2020/12/05 04:35:33;;;;;;;16.13;9.13;;;2.90;99.90;;;;;;5090443;28;20873;-54
2020/12/05 04:38:00;;;;;;;15.00;9.03;;;3.00;99.90;;;;;;5090013;28;20489;-54
2020/12/05 04:40:27;;;;;;;16.37;9.50;;;3.10;99.90;;;;;;5090390;28;20470;-54
2020/12/05 04:42:53;;;;;;;15.97;9.10;;;3.10;99.90;;;;;;5090171;28;20445;-54
2020/12/05 04:45:20;;;;;;;17.40;9.23;;;3.20;99.90;;;;;;5090429;28;20442;-53
2020/12/05 04:47:48;;;;;;;17.93;10.10;;;3.20;99.90;;;;;;5090082;28;20503;-54
2020/12/05 04:50:15;;;;;;;19.60;10.70;;;3.20;99.90;;;;;;5089999;28;21038;-54
2020/12/05 04:52:50;;;;;;;24.83;13.33;;;3.10;99.90;;;;;;5090420;28;20850;-54
2020/12/05 04:55:21;;;;;;;31.87;14.87;;;3.20;99.90;;;;;;5094193;28;20498;-54
2020/12/05 04:57:50;;;;;;;30.50;15.50;;;3.10;99.90;;;;;;5093567;28;22836;-54
2020/12/05 05:00:17;;;;;;;30.40;15.60;;;3.10;99.90;;;;;;5093337;28;20478;-54
2020/12/05 05:02:45;;;;;;;29.37;15.90;;;3.50;99.90;;;;;;5094086;28;20456;-54
2020/12/05 05:05:13;;;;;;;27.47;16.20;;;3.20;99.90;;;;;;5094024;28;20511;-54
2020/12/05 05:07:47;;;;;;;29.60;16.03;;;3.10;99.90;;;;;;5093773;28;20822;-54
2020/12/05 05:10:21;;;;;;;29.30;15.37;;;3.00;99.90;;;;;;5093608;28;20548;-54
2020/12/05 05:12:48;;;;;;;34.13;16.20;;;3.20;99.90;;;;;;5093668;28;20506;-54
2020/12/05 05:15:29;;;;;;;29.60;15.33;;;3.20;99.90;;;;;;5093282;28;20869;-54
2020/12/05 05:18:00;;;;;;;30.10;15.53;;;3.30;99.90;;;;;;5093353;28;20481;-54
2020/12/05 05:20:28;;;;;;;28.80;15.80;;;3.40;99.90;;;;;;5093367;28;20462;-54
2020/12/05 05:23:10;;;;;;;29.07;15.47;;;3.20;99.90;;;;;;5093532;28;20543;-54
2020/12/05 05:25:57;;;;;;;30.07;16.47;;;3.20;99.90;;;;;;5092292;28;20518;-54
2020/12/05 05:28:27;;;;;;;28.87;15.23;;;3.30;99.90;;;;;;5073353;28;20446;-54
2020/12/05 05:31:01;;;;;;;30.33;16.20;;;3.10;99.90;;;;;;5080253;28;20531;-54
2020/12/05 05:33:41;;;;;;;28.00;14.47;;;3.20;99.90;;;;;;5082027;28;20446;-53
2020/12/05 05:36:23;;;;;;;31.13;15.43;;;3.10;99.90;;;;;;5080409;28;20450;-54
2020/12/05 05:39:01;;;;;;;26.10;14.33;;;3.00;99.90;;;;;;5073273;28;20481;-54
2020/12/05 05:41:27;;;;;;;28.43;14.53;;;3.00;99.90;;;;;;5075374;28;20525;-54
2020/12/05 05:43:59;;;;;;;29.53;15.60;;;3.10;99.90;;;;;;5073181;28;20931;-54
2020/12/05 05:46:27;;;;;;;32.10;16.10;;;3.10;99.90;;;;;;5073140;28;20921;-54
2020/12/05 05:48:54;;;;;;;33.40;16.10;;;2.90;99.90;;;;;;5072682;28;20455;-54
2020/12/05 05:51:40;;;;;;;32.83;16.57;;;3.10;99.90;;;;;;5073039;28;20442;-54
2020/12/05 05:54:15;;;;;;;32.73;15.90;;;2.90;99.90;;;;;;5077004;28;20435;-54
2020/12/05 05:56:59;;;;;;;30.53;14.93;;;3.00;99.90;;;;;;5072705;28;20940;-54
2020/12/05 05:59:29;;;;;;;30.50;16.33;;;2.90;99.90;;;;;;5086696;28;20477;-54
2020/12/05 06:01:56;;;;;;;27.40;15.23;;;3.10;99.90;;;;;;5092367;28;20519;-54
2020/12/05 06:04:34;;;;;;;33.37;16.07;;;3.20;99.90;;;;;;5092744;28;20873;-54
2020/12/05 06:07:01;;;;;;;29.20;15.70;;;3.10;99.90;;;;;;5092717;28;21097;-54
2020/12/05 06:09:35;;;;;;;30.07;16.20;;;3.10;99.90;;;;;;5091997;28;21039;-54
2020/12/05 06:12:03;;;;;;;30.50;16.10;;;3.20;99.90;;;;;;5092676;28;20504;-53
2020/12/05 06:14:31;;;;;;;34.17;16.50;;;3.10;99.90;;;;;;5092143;28;20450;-54
2020/12/05 06:16:59;;;;;;;32.60;17.57;;;3.10;99.90;;;;;;5092314;28;20502;-54
2020/12/05 06:19:26;;;;;;;30.80;16.70;;;3.00;99.90;;;;;;5092365;28;20534;-54
2020/12/05 06:21:55;;;;;;;35.63;17.20;;;3.10;99.90;;;;;;5091726;28;20446;-54
2020/12/05 06:24:33;;;;;;;36.03;17.53;;;3.00;99.90;;;;;;5091162;28;20521;-53
2020/12/05 06:27:02;;;;;;;31.80;15.80;;;2.80;99.90;;;;;;5091741;28;20449;-54
2020/12/05 06:29:32;;;;;;;36.97;19.60;;;2.90;99.90;;;;;;5092048;28;20466;-54
2020/12/05 06:31:58;;;;;;;34.30;17.80;;;2.80;99.90;;;;;;5092327;28;20529;-54
2020/12/05 06:34:42;;;;;;;35.13;18.00;;;2.90;99.90;;;;;;5092489;28;20938;-54
2020/12/05 06:37:10;;;;;;;31.80;16.70;;;3.00;99.90;;;;;;5092154;28;20479;-54
2020/12/05 06:39:37;;;;;;;31.30;16.53;;;2.90;99.90;;;;;;5091794;28;20462;-54
2020/12/05 06:42:17;;;;;;;32.77;16.20;;;3.00;99.90;;;;;;5092104;28;20453;-54
2020/12/05 06:44:45;;;;;;;30.83;16.50;;;2.90;99.90;;;;;;5091998;28;21026;-54
2020/12/05 06:47:23;;;;;;;34.30;16.40;;;2.70;99.90;;;;;;5091823;28;20442;-54
2020/12/05 06:49:51;;;;;;;32.67;16.53;;;2.90;99.90;;;;;;5091589;28;20926;-54
2020/12/05 06:52:41;;;;;;;34.20;18.00;;;2.90;99.90;;;;;;5092000;28;20446;-54
2020/12/05 06:55:16;;;;;;;40.00;19.00;;;2.70;99.90;;;;;;5087350;28;21021;-54
2020/12/05 06:57:43;;;;;;;37.70;19.00;;;2.70;99.90;;;;;;5078228;28;20527;-54
2020/12/05 07:00:23;;;;;;;39.73;19.40;;;2.70;99.90;;;;;;5073655;28;20875;-54
2020/12/05 07:02:55;;;;;;;47.13;19.23;;;2.80;99.90;;;;;;5081791;28;20434;-54
2020/12/05 07:05:32;;;;;;;33.87;17.47;;;2.70;99.90;;;;;;5071782;28;20431;-54
2020/12/05 07:08:00;;;;;;;39.40;18.13;;;2.60;99.90;;;;;;5071569;28;20438;-54
2020/12/05 07:10:44;;;;;;;36.60;18.33;;;2.70;99.90;;;;;;5071175;28;20458;-54
2020/12/05 07:13:14;;;;;;;39.30;18.50;;;2.80;99.90;;;;;;5071354;28;20493;-54
2020/12/05 07:15:41;;;;;;;32.90;18.03;;;2.90;99.90;;;;;;5086642;28;20433;-54
2020/12/05 07:18:09;;;;;;;35.70;18.13;;;3.10;99.90;;;;;;5089141;28;20478;-54
2020/12/05 07:20:36;;;;;;;37.40;19.03;;;2.90;99.90;;;;;;5089810;28;20457;-54
2020/12/05 07:23:03;;;;;;;35.97;17.70;;;2.90;99.90;;;;;;5089967;28;20484;-54
2020/12/05 07:25:30;;;;;;;32.37;18.10;;;3.00;99.90;;;;;;5089980;28;20441;-54
2020/12/05 07:27:57;;;;;;;34.07;17.07;;;2.90;99.90;;;;;;5090080;28;20466;-54
2020/12/05 07:30:23;;;;;;;32.00;17.77;;;3.00;99.90;;;;;;5089767;28;20450;-54
2020/12/05 07:32:51;;;;;;;34.57;18.40;;;2.90;99.90;;;;;;5071103;28;20443;-54
2020/12/05 07:35:19;;;;;;;36.27;18.50;;;2.80;99.90;;;;;;5072653;28;20472;-54
2020/12/05 07:37:46;;;;;;;36.47;19.47;;;2.80;99.90;;;;;;5080111;28;20469;-54
2020/12/05 07:40:13;;;;;;;39.70;20.20;;;2.80;99.90;;;;;;5080621;28;20890;-54
2020/12/05 07:42:41;;;;;;;35.03;19.17;;;2.70;99.90;;;;;;5087503;28;20453;-54
2020/12/05 07:45:09;;;;;;;40.87;20.47;;;2.80;99.90;;;;;;5070787;28;20975;-54
2020/12/05 07:47:37;;;;;;;36.93;18.80;;;2.80;99.90;;;;;;5074713;28;20503;-54
2020/12/05 07:50:05;;;;;;;34.33;18.47;;;3.00;99.90;;;;;;5070415;28;20465;-54
2020/12/05 07:52:31;;;;;;;33.87;18.13;;;3.10;99.90;;;;;;5070008;28;20464;-54
2020/12/05 07:54:59;;;;;;;36.03;18.30;;;3.10;99.90;;;;;;5070218;28;20501;-54
2020/12/05 07:57:27;;;;;;;34.83;18.63;;;3.00;99.90;;;;;;5088825;28;21060;-54
2020/12/05 08:00:01;;;;;;;34.60;17.87;;;2.90;99.90;;;;;;5088611;28;21036;-54
2020/12/05 08:02:45;;;;;;;41.30;19.63;;;2.90;99.90;;;;;;5088891;28;20536;-54
2020/12/05 08:05:22;;;;;;;38.87;19.47;;;2.90;99.90;;;;;;5070615;28;20877;-54
2020/12/05 08:07:57;;;;;;;39.70;18.63;;;2.90;99.90;;;;;;5070533;28;21024;-54
2020/12/05 08:10:27;;;;;;;37.40;17.80;;;2.90;99.90;;;;;;5070755;28;20906;-54
2020/12/05 08:13:14;;;;;;;36.40;19.27;;;3.10;99.90;;;;;;5070775;28;20439;-54
2020/12/05 08:15:41;;;;;;;36.27;17.80;;;3.20;99.90;;;;;;5070483;28;20861;-54
2020/12/05 08:18:08;;;;;;;39.27;19.03;;;3.40;99.90;;;;;;5070270;28;20482;-54
2020/12/05 08:20:42;;;;;;;38.70;18.87;;;3.30;99.90;;;;;;5069858;28;21045;-54
2020/12/05 08:23:09;;;;;;;35.53;17.90;;;3.50;99.90;;;;;;5072801;28;20508;-54
2020/12/05 08:25:36;;;;;;;33.63;17.87;;;3.50;99.90;;;;;;5090544;28;20942;-54
2020/12/05 08:28:04;;;;;;;35.23;17.47;;;3.60;99.90;;;;;;5091514;28;20434;-54
2020/12/05 08:30:31;;;;;;;30.63;16.70;;;3.70;99.90;;;;;;5094255;28;20515;-54
2020/12/05 08:33:02;;;;;;;33.83;17.33;;;3.70;99.90;;;;;;5094610;28;20442;-54
2020/12/05 08:35:31;;;;;;;37.90;18.77;;;3.60;99.90;;;;;;5094612;28;20857;-54
2020/12/05 08:38:00;;;;;;;35.07;18.50;;;3.60;99.90;;;;;;5094484;28;20484;-54
2020/12/05 08:40:27;;;;;;;33.70;17.57;;;3.60;99.90;;;;;;5094103;28;20544;-54
2020/12/05 08:42:54;;;;;;;35.80;17.00;;;3.70;99.90;;;;;;5094576;28;20446;-54
2020/12/05 08:45:21;;;;;;;36.90;17.97;;;3.70;99.90;;;;;;5094102;28;20511;-54
2020/12/05 08:47:51;;;;;;;31.50;15.97;;;3.70;99.90;;;;;;5094285;28;20434;-54
2020/12/05 08:50:28;;;;;;;33.93;17.67;;;3.80;99.90;;;;;;5093968;28;21041;-54
2020/12/05 08:52:59;;;;;;;32.03;17.03;;;3.50;99.90;;;;;;5094163;28;20453;-54
2020/12/05 08:55:26;;;;;;;33.23;17.63;;;3.40;99.90;;;;;;5094336;28;20445;-54
2020/12/05 08:57:57;;;;;;;34.03;17.60;;;3.40;99.90;;;;;;5093512;28;20577;-54
2020/12/05 09:00:25;;;;;;;34.97;18.83;;;3.40;99.90;;;;;;5093634;28;20481;-54
2020/12/05 09:02:51;;;;;;;38.20;19.27;;;3.50;99.90;;;;;;5093708;28;20446;-54
2020/12/05 09:05:18;;;;;;;36.20;20.50;;;3.40;99.90;;;;;;5093839;28;20442;-54
2020/12/05 09:07:55;;;;;;;38.50;20.53;;;3.40;99.90;;;;;;5093748;28;20446;-54
2020/12/05 09:10:24;;;;;;;48.87;23.47;;;3.40;99.90;;;;;;5087275;28;20469;-54
2020/12/05 09:12:51;;;;;;;38.27;20.13;;;3.30;99.90;;;;;;5085765;28;20441;-54
2020/12/05 09:15:17;;;;;;;39.90;20.30;;;3.30;99.90;;;;;;5073523;28;21001;-54
2020/12/05 09:17:44;;;;;;;43.43;22.20;;;3.60;99.90;;;;;;5075204;28;20474;-54
2020/12/05 09:20:13;;;;;;;44.27;22.33;;;3.60;99.90;;;;;;5073046;28;20465;-54
2020/12/05 09:22:45;;;;;;;40.97;21.57;;;3.60;99.90;;;;;;5073444;28;20496;-54
2020/12/05 09:25:12;;;;;;;33.93;18.60;;;3.70;99.90;;;;;;5073650;28;20518;-54
2020/12/05 09:27:41;;;;;;;34.80;19.37;;;3.80;99.90;;;;;;5073522;28;20867;-54
2020/12/05 09:30:10;;;;;;;39.23;19.60;;;3.90;99.90;;;;;;5091132;28;20511;-54
2020/12/05 09:32:38;;;;;;;33.20;17.53;;;3.80;99.90;;;;;;5092030;28;20939;-54
2020/12/05 09:35:06;;;;;;;33.90;18.00;;;3.70;99.90;;;;;;5092259;28;20442;-54
2020/12/05 09:37:32;;;;;;;36.87;19.33;;;3.70;99.90;;;;;;5092232;28;20882;-53
2020/12/05 09:39:59;;;;;;;44.73;20.70;;;3.70;99.90;;;;;;5078603;28;20466;-54
2020/12/05 09:42:26;;;;;;;42.47;22.07;;;3.70;99.90;;;;;;5091941;28;20935;-54
2020/12/05 09:44:54;;;;;;;38.83;20.37;;;3.60;99.90;;;;;;5083899;28;20439;-54
2020/12/05 09:47:20;;;;;;;38.03;19.83;;;3.60;99.90;;;;;;5073205;28;20435;-54
2020/12/05 09:49:46;;;;;;;43.40;20.70;;;3.60;99.90;;;;;;5077026;28;20851;-54
2020/12/05 09:52:13;;;;;;;37.70;20.30;;;3.50;99.90;;;;;;5083091;28;20935;-54
2020/12/05 09:54:39;;;;;;;43.73;21.70;;;3.80;99.90;;;;;;5091993;28;20992;-54
2020/12/05 09:57:06;;;;;;;37.33;21.40;;;3.90;99.90;;;;;;5076843;28;20451;-54
2020/12/05 09:59:33;;;;;;;41.93;21.47;;;3.90;99.90;;;;;;5084239;28;20485;-54
2020/12/05 10:02:03;;;;;;;41.30;22.20;;;3.90;99.90;;;;;;5073008;28;20439;-54
2020/12/05 10:04:30;;;;;;;38.90;21.50;;;4.00;99.90;;;;;;5072870;28;20533;-54
2020/12/05 10:06:56;;;;;;;39.07;20.40;;;4.10;99.90;;;;;;5072905;28;20435;-54
2020/12/05 10:09:23;;;;;;;38.20;20.30;;;4.20;99.90;;;;;;5087662;28;20511;-54
2020/12/05 10:11:50;;;;;;;43.53;20.20;;;4.20;99.90;;;;;;5091338;28;20869;-54
2020/12/05 10:14:16;;;;;;;37.73;20.57;;;4.00;99.90;;;;;;5091491;28;20510;-54
2020/12/05 10:16:43;;;;;;;37.37;20.40;;;3.80;99.90;;;;;;5091259;28;20931;-54
2020/12/05 10:19:10;;;;;;;37.73;20.40;;;3.80;99.90;;;;;;5090812;28;20481;-54
2020/12/05 10:21:37;;;;;;;37.97;20.07;;;3.80;99.90;;;;;;5090622;28;20507;-53
2020/12/05 10:24:04;;;;;;;39.17;20.90;;;3.90;99.90;;;;;;5080116;28;20442;-54
2020/12/05 10:26:30;;;;;;;35.53;19.10;;;3.90;99.90;;;;;;5090169;28;20523;-54
2020/12/05 10:28:56;;;;;;;39.90;20.87;;;3.90;99.90;;;;;;5076645;28;20459;-54
2020/12/05 10:31:23;;;;;;;34.93;19.20;;;4.00;99.90;;;;;;5071729;28;20485;-53
2020/12/05 10:33:49;;;;;;;40.17;21.50;;;4.00;99.90;;;;;;5071508;28;20443;-54
2020/12/05 10:36:20;;;;;;;40.27;21.37;;;4.20;99.90;;;;;;5071388;28;20447;-54
2020/12/05 10:38:47;;;;;;;43.67;21.20;;;4.20;99.90;;;;;;5070890;28;20480;-54
2020/12/05 10:41:14;;;;;;;38.97;20.60;;;4.20;99.90;;;;;;5084796;28;20463;-53
2020/12/05 10:43:41;;;;;;;37.20;20.60;;;4.20;99.90;;;;;;5090294;28;20450;-54
2020/12/05 10:46:07;;;;;;;36.57;21.20;;;4.20;99.90;;;;;;5089806;28;20858;-54
2020/12/05 10:48:34;;;;;;;38.80;20.73;;;4.10;99.90;;;;;;5089590;28;20442;-54
2020/12/05 10:51:01;;;;;;;37.10;20.83;;;4.10;99.90;;;;;;5088992;28;20450;-54
2020/12/05 10:53:28;;;;;;;39.00;20.57;;;3.90;99.90;;;;;;5070963;28;20431;-54
2020/12/05 10:55:55;;;;;;;38.60;20.90;;;4.00;99.90;;;;;;5070596;28;20989;-54
2020/12/05 10:58:21;;;;;;;48.07;23.07;;;4.00;99.90;;;;;;5071157;28;20508;-53
2020/12/05 11:00:48;;;;;;;41.77;22.33;;;4.10;99.90;;;;;;5070921;28;20466;-54
2020/12/05 11:03:14;;;;;;;42.67;22.20;;;4.00;99.90;;;;;;5090118;28;20443;-54
2020/12/05 11:05:41;;;;;;;44.17;22.07;;;3.90;99.90;;;;;;5090320;28;20445;-54
2020/12/05 11:08:07;;;;;;;36.87;21.50;;;4.00;99.90;;;;;;5090235;28;20876;-54
2020/12/05 11:10:35;;;;;;;37.70;21.23;;;4.10;99.90;;;;;;5089843;28;20799;-53
2020/12/05 11:13:01;;;;;;;42.13;21.73;;;4.20;99.90;;;;;;5089993;28;20442;-54
2020/12/05 11:15:27;;;;;;;44.73;22.23;;;4.10;99.90;;;;;;5089750;28;20468;-54
2020/12/05 11:17:54;;;;;;;42.60;22.23;;;4.10;99.90;;;;;;5089465;28;20482;-54
2020/12/05 11:20:22;;;;;;;42.07;22.80;;;4.20;99.90;;;;;;5079703;28;20518;-54
2020/12/05 11:22:48;;;;;;;40.90;21.50;;;4.20;99.90;;;;;;5080145;28;20451;-54
2020/12/05 11:25:15;;;;;;;40.37;22.03;;;4.20;99.90;;;;;;5074080;28;20497;-54
2020/12/05 11:27:42;;;;;;;36.30;21.40;;;4.30;99.90;;;;;;5074767;28;20503;-54
2020/12/05 11:30:09;;;;;;;37.97;21.70;;;4.30;99.90;;;;;;5071548;28;20455;-54
2020/12/05 11:32:37;;;;;;;41.67;23.23;;;4.40;99.90;;;;;;5072316;28;20443;-54
2020/12/05 11:35:04;;;;;;;38.80;21.00;;;4.50;99.90;;;;;;5071968;28;20735;-54
2020/12/05 11:37:31;;;;;;;35.97;20.70;;;4.70;99.90;;;;;;5085318;28;20453;-54
2020/12/05 11:39:57;;;;;;;36.80;20.80;;;4.70;99.90;;;;;;5090237;28;20470;-54
2020/12/05 11:42:23;;;;;;;36.00;19.90;;;4.60;99.90;;;;;;5091219;28;20442;-54
2020/12/05 11:44:51;;;;;;;37.03;21.10;;;4.40;99.90;;;;;;5090361;28;20449;-54
2020/12/05 11:47:17;;;;;;;35.67;19.83;;;4.40;99.90;;;;;;5090596;28;21008;-54
2020/12/05 11:49:44;;;;;;;33.67;19.97;;;4.50;99.90;;;;;;5090492;28;20466;-54
2020/12/05 11:52:10;;;;;;;35.43;18.63;;;4.60;99.90;;;;;;5089573;28;20748;-54
2020/12/05 11:54:37;;;;;;;35.53;19.93;;;4.80;99.90;;;;;;5081907;28;20524;-54
2020/12/05 11:57:03;;;;;;;34.10;19.17;;;4.70;99.90;;;;;;5090960;28;20851;-54
2020/12/05 11:59:29;;;;;;;35.27;19.77;;;4.50;99.90;;;;;;5089183;28;20492;-54
2020/12/05 12:01:57;;;;;;;38.80;21.25;;;4.40;99.90;;;;;;5086199;28;20490;-54
2020/12/05 12:04:23;;;;;;;34.83;20.03;;;4.40;99.90;;;;;;5082793;28;20214;-54
2020/12/05 12:06:50;;;;;;;36.00;20.33;;;4.40;99.90;;;;;;5089743;28;20450;-54
2020/12/05 12:09:16;;;;;;;38.60;20.93;;;4.40;99.90;;;;;;5088995;28;20477;-54
2020/12/05 12:11:43;;;;;;;37.40;20.07;;;4.30;99.90;;;;;;5089677;28;20982;-54
2020/12/05 12:14:10;;;;;;;37.57;19.60;;;4.30;99.90;;;;;;5072139;28;20891;-54
2020/12/05 12:16:36;;;;;;;39.53;20.30;;;4.20;99.90;;;;;;5088649;28;20459;-54
2020/12/05 12:19:05;;;;;;;34.10;20.37;;;4.30;99.90;;;;;;5088275;28;21011;-54
2020/12/05 12:21:31;;;;;;;35.40;20.30;;;4.30;99.90;;;;;;5088233;28;20458;-54
2020/12/05 12:23:58;;;;;;;38.33;20.53;;;4.40;99.90;;;;;;5088258;28;20822;-53
2020/12/05 12:26:29;;;;;;;41.03;21.60;;;4.40;99.90;;;;;;5090251;28;20463;-53
2020/12/05 12:28:56;;;;;;;38.50;20.50;;;4.40;99.90;;;;;;5089918;28;20476;-54
2020/12/05 12:31:22;;;;;;;37.97;21.07;;;4.40;99.90;;;;;;5090081;28;20461;-55
2020/12/05 12:33:49;;;;;;;41.27;22.90;;;4.50;99.90;;;;;;5089846;28;20449;-53
2020/12/05 12:36:17;;;;;;;44.10;22.90;;;4.60;99.90;;;;;;5090607;28;20441;-54
2020/12/05 12:38:44;;;;;;;38.07;23.40;;;4.60;99.90;;;;;;5089588;28;20571;-55
2020/12/05 12:41:14;;;;;;;41.27;22.90;;;4.60;99.90;;;;;;5089793;28;20460;-54
2020/12/05 12:43:40;;;;;;;37.90;20.90;;;4.40;99.90;;;;;;5090059;28;20481;-55